My Meet Scores
Madeline Gallagher, Gym Kinetics Gymnastics - MyMeetScores.com
Top100 | Top Teams | Upcoming Meets | Completed Meets | Latest | Add Scores | Help| Support | Bookmark and Share

Madeline Gallagher, Gym Kinetics Gymnastics
Personal Bests
LevelVault BarsBeamFloorAA
5N7.7507.000 8.2257.10030.075
XG9.3509.325 9.4009.55037.300
XS9.4259.550 9.4509.30037.675
Meet Scores
Date Meet Team Session Level Division Vault Bars Beam Floor AA
2021-03-18 Level 5 & Xcel Gold State Gym Kinetics Gymnastics 8 XG Sr B 9.300 7T 9.075 11 9.250 9 9.250 12T 36.875 7T
2021-02-26 Kinetic Classic 2021 Gym Kinetics Gymnastics 01 XG Older 8.800 4T 9.200 5T 8.075 16 9.550 5T 35.625 8
2021-01-21 King Arthur Invitational Gym Kinetics Gymnastics 17 XG SR 9.075 6 9.050 6 7.775 10 9.250 7T 35.150 9
2020-02-21 Kinetic Classic Gym Kinetics Gymnastics 10 XG Middle 9.350 20T 8.700 65T 9.000 37T 8.825 67T 35.875 54
2020-01-31 Chow's Challenge Gym Kinetics Gymnastics B3 XG Sr B 9.150 5 9.300 8 8.925 5 9.475 4 36.850 5
2020-01-17 2020 Bravo Classic Gym Kinetics Gymnastics 3A XG Jr 9.050 10T 8.725 6 9.000 9T 9.400 4 36.175 5
2020-01-10 Leenda's Island Adventure Gym Kinetics Gymnastics GG9 XG 12 Year Ol 8.875 2 9.250 12 8.125 14 9.400 3 35.650 8
2019-12-20 Aspire Classic - 2019 Gym Kinetics Gymnastics 9A XG Sr A 9.125 4T 9.325 11 9.400 4 9.450 6T 37.300 4
2019-12-06 Ultimate Wish Classic Gym Kinetics Gymnastics 9 XG JR 8.900 6T 8.700 13 8.525 19 9.475 6 35.600 14
2019-04-13 2019 Illinois XB, XS State Championships Gym Kinetics Gymnastics 1 XS Sr A 9.425 6T 9.500 19* 9.450 13T 9.300 10T 37.675 7T
2019-03-01 NGCD Academy's 2019 Flip'r Invitational Gym Kinetics Gymnastics 8 XS Jr B 9.175 13T 9.300 4 8.850 12 9.150 10 36.475 11
2019-02-08 Midwest Twisters Harley Meet Womens Gym Kinetics Gymnastics S10 XS 11 yrs. 8.500 14 9.350 5T 9.375 6 9.100 12 36.325 8
2019-01-18 2019 Bravo Classic Gym Kinetics Gymnastics 10B XS Jr 9.175 6 9.550 1 9.200 9T 8.750 5 36.675 3T
2019-01-11 St Jude Benefit Meet Gym Kinetics Gymnastics 7C XS Sr A 9.325 2 9.400 9 8.950 10T 9.075 11 36.750 8
2018-12-14 2018 Aspire Classic Gym Kinetics Gymnastics 3 XS Middle 9.075 5 9.525 4 9.300 3 9.200 5 37.100 3
2018-04-06 XCEL State Championships Gym Kinetics Gymnastics 3A XS Jr A 8.800 18T 9.275 16T 9.025 17 8.675 27 35.775 24
2018-02-23 Kinetic Classic Gym Kinetics Gymnastics 8 XS Younger 7.900 80 8.950 50T 8.900 47T 8.900 67T 34.650 71
2018-02-03 Midwest Games Gym Kinetics Gymnastics 2 XS JR B 8.450 10 9.150 6 8.550 12 8.700 8 34.850 10
2018-01-19 2018 Bravo Classic Gym Kinetics Gymnastics 10A XS Jr 8.525 18 9.050 11T 9.050 11 8.400 18 35.025 16
2017-12-15 2017 Aspire Classic Gym Kinetics Gymnastics 11B XS Jr B 8.800 13T 9.400 13T 7.900 16 8.700 11T 34.800 13
2012-11-30 The Beachfest LaFleursTampa 3 5N 5N2 7.750 6 7.000 3 8.225 5 7.100 8 30.075 7
Get your scores on
a t-shirt, pin, or hoodie